createdAt,value
2019-01-08T00:00:11.006Z,-5.36
2019-01-08T00:02:43.788Z,-5.43
2019-01-08T00:05:14.902Z,-5.49
2019-01-08T00:07:46.031Z,-5.43
2019-01-08T00:10:19.101Z,-5.29
2019-01-08T00:12:50.400Z,-5.38
2019-01-08T00:15:21.572Z,-5.29
2019-01-08T00:17:52.893Z,-5.30
2019-01-08T00:20:24.107Z,-5.32
2019-01-08T00:22:55.650Z,-5.25
2019-01-08T00:25:26.836Z,-5.25
2019-01-08T00:27:58.216Z,-5.18
2019-01-08T00:30:29.398Z,-5.27
2019-01-08T00:33:00.604Z,-5.13
2019-01-08T00:35:31.818Z,-5.08
2019-01-08T00:38:03.194Z,-5.12
2019-01-08T00:40:34.446Z,-5.23
2019-01-08T00:43:05.713Z,-5.16
2019-01-08T00:45:36.919Z,-5.09
2019-01-08T00:48:08.034Z,-5.04
2019-01-08T00:50:39.353Z,-5.04
2019-01-08T00:53:11.613Z,-5.02
2019-01-08T00:55:42.733Z,-5.02
2019-01-08T00:58:13.914Z,-4.95
2019-01-08T01:00:46.180Z,-4.70
2019-01-08T01:03:17.398Z,-4.80
2019-01-08T01:05:48.701Z,-4.81
2019-01-08T01:08:20.081Z,-4.71
2019-01-08T01:10:51.289Z,-4.73
2019-01-08T01:13:22.497Z,-4.85
2019-01-08T01:15:55.081Z,-4.80
2019-01-08T01:18:28.380Z,-4.87
2019-01-08T01:20:59.613Z,-4.78
2019-01-08T01:23:30.959Z,-4.71
2019-01-08T01:26:02.280Z,-4.61
2019-01-08T01:28:33.550Z,-4.54
2019-01-08T01:31:04.883Z,-4.43
2019-01-08T01:33:36.070Z,-4.47
2019-01-08T01:36:07.275Z,-4.54
2019-01-08T01:38:38.599Z,-4.72
2019-01-08T01:41:09.749Z,-4.75
2019-01-08T01:43:40.949Z,-4.82
2019-01-08T01:46:12.180Z,-4.83
2019-01-08T01:48:44.371Z,-4.79
2019-01-08T01:51:16.748Z,-4.83
2019-01-08T01:53:47.834Z,-4.83
2019-01-08T01:56:19.165Z,-4.84
2019-01-08T01:58:50.470Z,-4.83
2019-01-08T02:01:21.791Z,-4.79
2019-01-08T02:03:52.860Z,-4.68
2019-01-08T02:06:23.979Z,-4.68
2019-01-08T02:08:55.299Z,-4.65
2019-01-08T02:11:26.713Z,-4.60
2019-01-08T02:13:58.862Z,-4.57
2019-01-08T02:16:32.656Z,-4.63
2019-01-08T02:19:03.887Z,-4.58
2019-01-08T02:21:34.971Z,-4.56
2019-01-08T02:24:06.513Z,-4.58
2019-01-08T02:26:37.729Z,-4.55
2019-01-08T02:29:16.296Z,-4.68
2019-01-08T02:31:41.745Z,-4.63
2019-01-08T02:34:13.093Z,-4.44
2019-01-08T02:36:46.169Z,-4.33
2019-01-08T02:39:17.468Z,-4.33
2019-01-08T02:41:48.807Z,-4.34
2019-01-08T02:44:20.216Z,-4.29
2019-01-08T02:46:51.365Z,-4.25
2019-01-08T02:49:24.058Z,-4.28
2019-01-08T02:51:55.081Z,-4.28
2019-01-08T02:54:26.526Z,-4.16
2019-01-08T02:56:57.791Z,-4.07
2019-01-08T02:59:28.949Z,-4.14
2019-01-08T03:02:00.223Z,-3.96
2019-01-08T03:04:31.424Z,-3.85
2019-01-08T03:07:02.671Z,-3.76
2019-01-08T03:09:38.504Z,-3.66
2019-01-08T03:12:11.274Z,-3.66
2019-01-08T03:14:42.557Z,-3.74
2019-01-08T03:17:14.845Z,-3.87
2019-01-08T03:19:46.082Z,-4.07
2019-01-08T03:22:19.276Z,-4.04
2019-01-08T03:24:50.545Z,-4.18
2019-01-08T03:27:21.652Z,-4.15
2019-01-08T03:29:52.890Z,-4.06
2019-01-08T03:32:24.112Z,-4.02
2019-01-08T03:34:55.202Z,-4.10
2019-01-08T03:37:28.041Z,-4.27
2019-01-08T03:39:59.247Z,-4.20
2019-01-08T03:42:30.451Z,-4.30
2019-01-08T03:45:01.799Z,-4.23
2019-01-08T03:47:35.411Z,-4.37
2019-01-08T03:50:07.048Z,-4.35
2019-01-08T03:52:41.776Z,-4.30
2019-01-08T03:55:12.852Z,-4.30
2019-01-08T03:57:44.004Z,-4.40
2019-01-08T04:00:15.485Z,-4.39
2019-01-08T04:02:50.406Z,-4.50
2019-01-08T04:05:21.717Z,-4.46
2019-01-08T04:07:52.944Z,-4.38
2019-01-08T04:10:24.027Z,-4.29
2019-01-08T04:12:57.009Z,-4.33
2019-01-08T04:15:30.084Z,-4.18
2019-01-08T04:18:02.563Z,-4.15
2019-01-08T04:20:33.783Z,-4.28
2019-01-08T04:23:05.084Z,-4.17
2019-01-08T04:25:36.191Z,-4.11
2019-01-08T04:28:10.053Z,-4.10
2019-01-08T04:30:41.291Z,-4.14
2019-01-08T04:33:12.621Z,-4.03
2019-01-08T04:35:43.728Z,-4.00
2019-01-08T04:38:15.015Z,-4.00
2019-01-08T04:40:46.238Z,-3.93
2019-01-08T04:43:17.471Z,-3.86
2019-01-08T04:45:48.771Z,-3.73
2019-01-08T04:48:19.782Z,-3.68
2019-01-08T04:50:51.093Z,-3.66
2019-01-08T04:53:22.368Z,-3.76
2019-01-08T04:55:54.589Z,-3.83
2019-01-08T04:58:25.854Z,-3.77
2019-01-08T05:00:57.017Z,-3.77
2019-01-08T05:03:28.125Z,-3.71
2019-01-08T05:05:59.538Z,-3.87
2019-01-08T05:08:30.654Z,-3.89
2019-01-08T05:11:01.953Z,-3.89
2019-01-08T05:13:33.024Z,-3.74
2019-01-08T05:16:04.227Z,-3.74
2019-01-08T05:18:35.434Z,-3.72
2019-01-08T05:21:06.643Z,-3.73
2019-01-08T05:23:37.957Z,-3.66
2019-01-08T05:26:09.204Z,-3.64
2019-01-08T05:28:40.487Z,-3.70
2019-01-08T05:31:11.695Z,-3.69
2019-01-08T05:33:42.891Z,-3.69
2019-01-08T05:36:14.152Z,-3.66
2019-01-08T05:38:47.474Z,-3.68
2019-01-08T05:41:20.323Z,-3.57
2019-01-08T05:43:51.551Z,-3.57
2019-01-08T05:46:22.826Z,-3.59
2019-01-08T05:48:54.173Z,-3.52
2019-01-08T05:51:25.431Z,-3.56
2019-01-08T05:53:57.818Z,-3.65
2019-01-08T05:56:29.089Z,-3.59
2019-01-08T05:59:00.246Z,-3.65
2019-01-08T06:01:31.395Z,-3.59
2019-01-08T06:04:02.615Z,-3.61
2019-01-08T06:06:33.957Z,-3.61
2019-01-08T06:09:06.536Z,-3.49
2019-01-08T06:11:37.921Z,-3.44
2019-01-08T06:14:10.485Z,-3.36
2019-01-08T06:16:41.661Z,-3.33
2019-01-08T06:19:13.002Z,-3.28
2019-01-08T06:21:44.174Z,-3.22
2019-01-08T06:24:15.267Z,-3.21
2019-01-08T06:26:46.721Z,-3.20
2019-01-08T06:29:17.841Z,-3.23
2019-01-08T06:31:49.137Z,-3.38
2019-01-08T06:34:21.840Z,-3.64
2019-01-08T06:36:53.008Z,-3.71
2019-01-08T06:39:25.752Z,-3.61
2019-01-08T06:41:56.955Z,-3.58
2019-01-08T06:44:28.026Z,-3.41
2019-01-08T06:46:59.240Z,-3.25
2019-01-08T06:49:30.601Z,-3.28
2019-01-08T06:52:01.813Z,-3.23
2019-01-08T06:54:33.010Z,-3.26
2019-01-08T06:57:04.332Z,-3.19
2019-01-08T06:59:35.445Z,-3.09
2019-01-08T07:02:06.586Z,-2.94
2019-01-08T07:04:37.829Z,-2.85
2019-01-08T07:07:09.049Z,-2.86
2019-01-08T07:09:40.228Z,-2.96
2019-01-08T07:12:11.377Z,-3.00
2019-01-08T07:14:42.658Z,-3.05
2019-01-08T07:17:13.863Z,-3.24
2019-01-08T07:19:45.124Z,-3.13
2019-01-08T07:22:16.325Z,-3.00
2019-01-08T07:24:48.580Z,-3.05
2019-01-08T07:27:19.830Z,-2.89
2019-01-08T07:29:50.950Z,-2.71
2019-01-08T07:32:22.154Z,-2.60
2019-01-08T07:34:53.264Z,-2.49
2019-01-08T07:37:24.695Z,-2.62
2019-01-08T07:39:57.236Z,-2.55
2019-01-08T07:42:28.460Z,-2.40
2019-01-08T07:44:59.696Z,-2.29
2019-01-08T07:47:31.000Z,-2.26
2019-01-08T07:50:02.208Z,-2.24
2019-01-08T07:52:33.575Z,-2.06
2019-01-08T07:55:04.789Z,-2.04
2019-01-08T07:57:37.492Z,-2.06
2019-01-08T08:00:08.791Z,-1.94
2019-01-08T08:02:40.197Z,-1.78
2019-01-08T08:05:13.064Z,-1.77
2019-01-08T08:07:44.324Z,-1.72
2019-01-08T08:10:15.445Z,-1.59
2019-01-08T08:12:46.854Z,-1.65
2019-01-08T08:15:18.111Z,-1.60
2019-01-08T08:17:49.202Z,-1.61
2019-01-08T08:20:20.535Z,-1.45
2019-01-08T08:22:51.700Z,-1.51
2019-01-08T08:25:22.808Z,-1.43
2019-01-08T08:27:54.144Z,-1.22
2019-01-08T08:30:26.358Z,-1.21
2019-01-08T08:32:57.804Z,-0.92
2019-01-08T08:35:29.120Z,-0.91
2019-01-08T08:38:00.398Z,-0.66
2019-01-08T08:40:33.045Z,-0.85
2019-01-08T08:43:07.165Z,-0.53
2019-01-08T08:45:38.360Z,-0.45
2019-01-08T08:48:09.705Z,0.09
2019-01-08T08:50:41.130Z,0.62
2019-01-08T08:53:12.310Z,1.26
2019-01-08T08:55:44.597Z,2.51
2019-01-08T08:58:15.842Z,4.67
2019-01-08T09:00:50.495Z,7.65
2019-01-08T09:03:23.845Z,9.33
2019-01-08T09:05:55.032Z,11.11
2019-01-08T09:08:27.373Z,13.61
2019-01-08T09:10:59.922Z,15.06
2019-01-08T09:13:31.300Z,16.01
2019-01-08T09:16:03.511Z,16.71
2019-01-08T09:18:35.140Z,17.42
2019-01-08T09:21:09.359Z,17.44
2019-01-08T09:23:40.537Z,17.09
2019-01-08T09:26:11.723Z,14.92
2019-01-08T09:28:43.171Z,15.61
2019-01-08T09:31:15.656Z,17.07
2019-01-08T09:33:47.098Z,16.80
2019-01-08T09:36:18.343Z,15.22
2019-01-08T09:38:49.934Z,13.75
2019-01-08T09:41:21.181Z,12.70
2019-01-08T09:43:52.477Z,11.73
2019-01-08T09:46:23.998Z,10.99
2019-01-08T09:48:55.218Z,10.47
2019-01-08T09:51:26.636Z,9.80
2019-01-08T09:53:59.656Z,9.32
2019-01-08T09:56:30.752Z,8.42
2019-01-08T09:59:02.148Z,7.83
2019-01-08T10:01:33.404Z,7.61
2019-01-08T10:04:05.179Z,7.32
2019-01-08T10:06:36.559Z,6.73
2019-01-08T10:09:08.360Z,6.73
2019-01-08T10:11:39.529Z,7.54
2019-01-08T10:14:10.594Z,8.50
2019-01-08T10:16:41.811Z,8.91
2019-01-08T10:19:13.027Z,8.57
2019-01-08T10:21:44.239Z,10.42
2019-01-08T10:24:15.413Z,12.82
2019-01-08T10:26:46.677Z,15.16
2019-01-08T10:29:17.836Z,16.87
2019-01-08T10:31:49.044Z,17.32
2019-01-08T10:34:20.372Z,17.32
2019-01-08T10:36:51.705Z,17.74
2019-01-08T10:39:22.812Z,16.92
2019-01-08T10:41:54.091Z,17.86
2019-01-08T10:44:25.510Z,18.02
2019-01-08T10:46:56.702Z,17.17
2019-01-08T10:49:28.059Z,18.69
2019-01-08T10:51:59.071Z,19.28
2019-01-08T10:54:30.282Z,18.73
2019-01-08T10:57:01.468Z,20.03
2019-01-08T10:59:32.714Z,19.76
2019-01-08T11:02:03.977Z,20.33
2019-01-08T11:04:36.127Z,20.66
2019-01-08T11:07:07.435Z,20.51
2019-01-08T11:09:38.770Z,19.38
2019-01-08T11:12:10.051Z,20.79
2019-01-08T11:14:41.281Z,21.46
2019-01-08T11:17:13.562Z,21.13
2019-01-08T11:19:44.918Z,21.44
2019-01-08T11:22:16.143Z,22.13
2019-01-08T11:24:47.525Z,20.94
2019-01-08T11:27:18.750Z,19.47
2019-01-08T11:29:50.007Z,20.41
2019-01-08T11:32:21.206Z,20.43
2019-01-08T11:34:52.480Z,17.31
2019-01-08T11:37:23.737Z,18.50
2019-01-08T11:39:55.249Z,20.54
2019-01-08T11:42:26.424Z,20.80
2019-01-08T11:44:57.665Z,21.92
2019-01-08T11:47:28.961Z,21.93
2019-01-08T11:50:00.293Z,20.19
2019-01-08T11:52:31.317Z,19.42
2019-01-08T11:55:02.693Z,18.55
2019-01-08T11:57:33.780Z,19.20
2019-01-08T12:00:07.193Z,18.48
2019-01-08T12:02:47.612Z,17.10
2019-01-08T12:05:14.873Z,15.34
2019-01-08T12:07:45.763Z,13.64
2019-01-08T12:10:17.015Z,12.65
2019-01-08T12:12:48.343Z,11.07
2019-01-08T12:15:19.459Z,9.17
2019-01-08T12:17:50.757Z,7.70
2019-01-08T12:20:22.245Z,7.06
2019-01-08T12:22:53.566Z,6.67
2019-01-08T12:25:24.748Z,6.13
2019-01-08T12:27:55.923Z,5.13
2019-01-08T12:30:27.342Z,5.07
2019-01-08T12:32:58.651Z,4.73
2019-01-08T12:35:29.865Z,4.24
2019-01-08T12:38:01.022Z,3.85
2019-01-08T12:40:32.395Z,2.46
2019-01-08T12:43:03.812Z,2.46
2019-01-08T12:45:37.105Z,2.13
2019-01-08T12:48:08.482Z,1.80
2019-01-08T12:50:39.801Z,1.51
2019-01-08T12:53:11.075Z,0.96
2019-01-08T12:55:42.418Z,0.68
2019-01-08T12:58:13.658Z,0.61
2019-01-08T13:00:44.917Z,0.59
2019-01-08T13:03:16.398Z,0.55
2019-01-08T13:05:47.477Z,0.51
2019-01-08T13:08:18.760Z,0.60
2019-01-08T13:10:50.064Z,0.59
2019-01-08T13:13:22.206Z,0.54
2019-01-08T13:15:54.714Z,0.36
2019-01-08T13:18:26.104Z,0.17
2019-01-08T13:20:58.530Z,0.22
2019-01-08T13:23:29.714Z,0.23
2019-01-08T13:26:01.112Z,0.27
2019-01-08T13:28:32.333Z,0.27
2019-01-08T13:31:03.562Z,0.23
2019-01-08T13:33:35.077Z,-0.14
2019-01-08T13:36:07.600Z,-0.18
2019-01-08T13:38:38.743Z,-0.16
2019-01-08T13:41:10.045Z,-0.35
2019-01-08T13:43:41.364Z,-0.46
2019-01-08T13:46:12.716Z,-0.50
2019-01-08T13:48:43.927Z,-0.46
2019-01-08T13:51:15.306Z,-0.32
2019-01-08T13:53:46.694Z,-0.33
2019-01-08T13:56:20.477Z,-0.37
2019-01-08T13:58:51.761Z,-0.46
2019-01-08T14:01:23.105Z,-0.41
2019-01-08T14:03:54.317Z,-0.64
2019-01-08T14:06:25.605Z,-0.65
2019-01-08T14:08:56.912Z,-0.61
2019-01-08T14:11:28.269Z,-0.56
2019-01-08T14:14:00.897Z,-0.59
2019-01-08T14:16:32.112Z,-0.81
2019-01-08T14:19:03.314Z,-0.88
2019-01-08T14:21:34.641Z,-0.95
2019-01-08T14:24:05.994Z,-1.00
2019-01-08T14:26:37.341Z,-1.05
2019-01-08T14:29:10.768Z,-1.14
2019-01-08T14:31:42.244Z,-1.13
2019-01-08T14:34:13.548Z,-1.17
2019-01-08T14:36:44.860Z,-1.26
2019-01-08T14:39:16.063Z,-1.37
2019-01-08T14:41:47.269Z,-1.32
2019-01-08T14:44:19.613Z,-1.34
2019-01-08T14:46:50.846Z,-1.41
2019-01-08T14:49:22.256Z,-1.44
2019-01-08T14:51:53.623Z,-1.43
2019-01-08T14:54:24.959Z,-1.46
2019-01-08T14:56:56.156Z,-1.40
2019-01-08T14:59:28.634Z,-1.47
2019-01-08T15:02:01.328Z,-1.52
2019-01-08T15:04:32.508Z,-1.48
2019-01-08T15:07:04.010Z,-1.57
2019-01-08T15:09:35.039Z,-1.59
2019-01-08T15:12:06.322Z,-1.65
2019-01-08T15:14:37.770Z,-1.64
2019-01-08T15:17:09.041Z,-1.59
2019-01-08T15:19:41.568Z,-1.44
2019-01-08T15:22:13.896Z,-1.30
2019-01-08T15:24:48.577Z,-1.35
2019-01-08T15:27:20.105Z,-1.39
2019-01-08T15:29:51.415Z,-1.36
2019-01-08T15:32:22.869Z,-1.45
2019-01-08T15:34:54.091Z,-1.63
2019-01-08T15:37:25.493Z,-1.47
2019-01-08T15:39:56.724Z,-1.44
2019-01-08T15:42:29.698Z,-1.37
2019-01-08T15:45:01.900Z,-1.29
2019-01-08T15:47:33.204Z,-1.39
2019-01-08T15:50:05.331Z,-1.44
2019-01-08T15:52:36.652Z,-1.50
2019-01-08T15:55:08.887Z,-1.58
2019-01-08T15:57:42.141Z,-1.61
2019-01-08T16:00:15.541Z,-1.58
2019-01-08T16:02:47.022Z,-1.56
2019-01-08T16:05:18.337Z,-1.70
2019-01-08T16:07:50.868Z,-1.64
2019-01-08T16:10:22.024Z,-2.20
2019-01-08T16:12:55.040Z,-2.09
2019-01-08T16:15:26.473Z,-2.35
2019-01-08T16:17:57.661Z,-2.50
2019-01-08T16:20:29.337Z,-2.41
2019-01-08T16:23:01.787Z,-2.77
2019-01-08T16:25:33.059Z,-3.01
2019-01-08T16:28:04.362Z,-3.33
2019-01-08T16:30:35.642Z,-3.40
2019-01-08T16:33:15.704Z,-3.38
2019-01-08T16:35:40.913Z,-3.24
2019-01-08T16:38:12.249Z,-3.38
2019-01-08T16:40:43.344Z,-3.41
2019-01-08T16:43:14.684Z,-3.36
2019-01-08T16:45:45.917Z,-3.15
2019-01-08T16:48:16.967Z,-3.18
2019-01-08T16:50:48.087Z,-3.18
2019-01-08T16:53:19.592Z,-3.20
2019-01-08T16:55:50.715Z,-3.05
2019-01-08T16:58:23.571Z,-3.03
2019-01-08T17:00:54.912Z,-2.94
2019-01-08T17:03:26.831Z,-2.84
2019-01-08T17:05:58.150Z,-2.85
2019-01-08T17:08:29.421Z,-2.83
2019-01-08T17:11:01.123Z,-3.09
2019-01-08T17:13:32.471Z,-2.97
2019-01-08T17:16:03.683Z,-2.89
2019-01-08T17:18:35.338Z,-2.79
2019-01-08T17:21:06.558Z,-2.65
2019-01-08T17:23:37.753Z,-2.58
2019-01-08T17:26:09.083Z,-2.62
2019-01-08T17:28:40.736Z,-2.52
2019-01-08T17:31:11.858Z,-2.45
2019-01-08T17:33:43.174Z,-2.53
2019-01-08T17:36:14.462Z,-2.45
2019-01-08T17:38:45.700Z,-2.70
2019-01-08T17:41:16.932Z,-2.96
2019-01-08T17:43:49.679Z,-2.82
2019-01-08T17:46:21.077Z,-2.70
2019-01-08T17:48:52.389Z,-2.91
2019-01-08T17:51:23.742Z,-2.87
2019-01-08T17:53:55.015Z,-2.76
2019-01-08T17:56:26.498Z,-2.63
2019-01-08T17:59:06.721Z,-2.51
2019-01-08T18:01:42.311Z,-2.43
2019-01-08T18:04:13.607Z,-2.65
2019-01-08T18:06:44.861Z,-2.88
2019-01-08T18:09:16.147Z,-2.73
2019-01-08T18:11:47.518Z,-2.57
2019-01-08T18:14:18.906Z,-2.48
2019-01-08T18:16:50.087Z,-2.53
2019-01-08T18:19:21.539Z,-2.42
2019-01-08T18:21:52.613Z,-2.34
2019-01-08T18:24:23.706Z,-2.19
2019-01-08T18:26:55.100Z,-2.22
2019-01-08T18:29:26.223Z,-2.13
2019-01-08T18:31:57.650Z,-2.05
2019-01-08T18:34:29.219Z,-2.08
2019-01-08T18:37:00.458Z,-2.12
2019-01-08T18:39:31.829Z,-2.18
2019-01-08T18:42:02.914Z,-2.33
2019-01-08T18:44:35.225Z,-2.33
2019-01-08T18:47:06.633Z,-2.17
2019-01-08T18:49:42.670Z,-2.15
2019-01-08T18:52:15.535Z,-2.06
2019-01-08T18:54:46.832Z,-2.00
2019-01-08T18:57:17.894Z,-1.95
2019-01-08T18:59:49.115Z,-1.97
2019-01-08T19:02:20.492Z,-1.85
2019-01-08T19:04:52.007Z,-1.80
2019-01-08T19:07:23.170Z,-1.82
2019-01-08T19:10:02.539Z,-1.88
2019-01-08T19:12:36.093Z,-1.95
2019-01-08T19:15:07.863Z,-2.25
2019-01-08T19:17:39.288Z,-2.11
2019-01-08T19:20:10.778Z,-2.13
2019-01-08T19:22:43.164Z,-2.20
2019-01-08T19:25:14.581Z,-2.17
2019-01-08T19:27:45.833Z,-2.08
2019-01-08T19:30:17.039Z,-2.00
2019-01-08T19:32:48.425Z,-1.84
2019-01-08T19:35:19.968Z,-2.12
2019-01-08T19:37:51.300Z,-2.22
2019-01-08T19:40:22.636Z,-2.23
2019-01-08T19:42:53.828Z,-2.40
2019-01-08T19:45:25.240Z,-2.28
2019-01-08T19:47:56.458Z,-2.13
2019-01-08T19:50:29.059Z,-2.15
2019-01-08T19:53:00.131Z,-2.28
2019-01-08T19:55:31.449Z,-2.23
2019-01-08T19:58:02.730Z,-2.14
2019-01-08T20:00:35.860Z,-2.13
2019-01-08T20:03:07.123Z,-2.06
2019-01-08T20:05:38.440Z,-2.01
2019-01-08T20:08:09.780Z,-1.97
2019-01-08T20:10:47.296Z,-1.92
2019-01-08T20:13:18.633Z,-1.85
2019-01-08T20:15:49.932Z,-1.81
2019-01-08T20:18:23.494Z,-2.05
2019-01-08T20:20:54.780Z,-2.26
2019-01-08T20:23:26.114Z,-2.17
2019-01-08T20:25:59.384Z,-2.00
2019-01-08T20:28:30.686Z,-1.94
2019-01-08T20:31:01.929Z,-1.86
2019-01-08T20:33:33.318Z,-1.80
2019-01-08T20:36:04.768Z,-1.76
2019-01-08T20:38:36.165Z,-1.77
2019-01-08T20:41:08.953Z,-1.99
2019-01-08T20:43:41.630Z,-1.84
2019-01-08T20:46:12.741Z,-1.73
2019-01-08T20:48:43.846Z,-1.95
2019-01-08T20:51:16.601Z,-2.38
2019-01-08T20:53:49.857Z,-2.36
2019-01-08T20:56:21.412Z,-2.09
2019-01-08T20:58:53.690Z,-2.01
2019-01-08T21:01:26.047Z,-2.04
2019-01-08T21:03:57.281Z,-2.03
2019-01-08T21:06:30.514Z,-2.07
2019-01-08T21:09:01.649Z,-2.10
2019-01-08T21:11:34.795Z,-2.11
2019-01-08T21:14:05.980Z,-2.04
2019-01-08T21:16:37.256Z,-1.91
2019-01-08T21:19:10.298Z,-1.81
2019-01-08T21:21:41.739Z,-2.07
2019-01-08T21:24:12.992Z,-2.11
2019-01-08T21:26:44.160Z,-2.47
2019-01-08T21:29:15.316Z,-2.50
2019-01-08T21:31:46.640Z,-2.27
2019-01-08T21:34:17.912Z,-2.08
2019-01-08T21:36:49.248Z,-2.02
2019-01-08T21:39:20.567Z,-1.89
2019-01-08T21:41:51.945Z,-1.87
2019-01-08T21:44:24.828Z,-1.83
2019-01-08T21:46:56.084Z,-1.86
2019-01-08T21:49:27.223Z,-1.70
2019-01-08T21:51:58.460Z,-1.65
